createdAt,value
2019-03-26T00:01:11.919Z,99.90
2019-03-26T00:03:15.530Z,99.90
2019-03-26T00:05:19.173Z,99.90
2019-03-26T00:07:22.815Z,99.90
2019-03-26T00:09:26.483Z,99.90
2019-03-26T00:11:30.055Z,99.90
2019-03-26T00:13:33.663Z,99.90
2019-03-26T00:15:37.226Z,99.90
2019-03-26T00:17:40.778Z,99.90
2019-03-26T00:19:44.376Z,99.90
2019-03-26T00:21:48.016Z,99.90
2019-03-26T00:23:51.591Z,99.90
2019-03-26T00:25:55.265Z,99.90
2019-03-26T00:27:58.836Z,99.90
2019-03-26T00:30:02.486Z,99.90
2019-03-26T00:32:06.081Z,99.90
2019-03-26T00:34:19.222Z,99.90
2019-03-26T00:36:14.875Z,99.90
2019-03-26T00:38:18.438Z,99.90
2019-03-26T00:40:22.032Z,99.90
2019-03-26T00:42:25.685Z,99.90
2019-03-26T00:44:29.259Z,99.90
2019-03-26T00:46:32.842Z,99.90
2019-03-26T00:48:36.439Z,99.90
2019-03-26T00:50:40.002Z,99.90
2019-03-26T00:52:43.560Z,99.90
2019-03-26T00:54:47.188Z,99.90
2019-03-26T00:56:50.747Z,99.90
2019-03-26T00:58:54.425Z,99.90
2019-03-26T01:00:57.991Z,99.90
2019-03-26T01:03:01.553Z,99.90
2019-03-26T01:05:07.505Z,99.90
2019-03-26T01:07:11.072Z,99.90
2019-03-26T01:09:14.635Z,99.90
2019-03-26T01:11:18.197Z,99.90
2019-03-26T01:13:21.766Z,99.90
2019-03-26T01:15:25.356Z,99.90
2019-03-26T01:17:29.054Z,99.90
2019-03-26T01:19:32.722Z,99.90
2019-03-26T01:21:36.308Z,99.90
2019-03-26T01:23:39.922Z,99.90
2019-03-26T01:25:43.480Z,99.90
2019-03-26T01:27:47.145Z,99.90
2019-03-26T01:29:50.781Z,99.90
2019-03-26T01:31:54.397Z,99.90
2019-03-26T01:33:57.973Z,99.90
2019-03-26T01:36:01.543Z,99.90
2019-03-26T01:38:05.164Z,99.90
2019-03-26T01:40:08.902Z,99.90
2019-03-26T01:42:12.464Z,99.90
2019-03-26T01:44:16.129Z,99.90
2019-03-26T01:46:19.775Z,99.90
2019-03-26T01:48:23.350Z,99.90
2019-03-26T01:50:26.955Z,99.90
2019-03-26T01:52:30.515Z,99.90
2019-03-26T01:54:34.113Z,99.90
2019-03-26T01:56:37.711Z,99.90
2019-03-26T01:58:41.309Z,99.90
2019-03-26T02:00:45.108Z,99.90
2019-03-26T02:02:48.679Z,99.90
2019-03-26T02:04:59.906Z,99.90
2019-03-26T02:06:57.474Z,99.90
2019-03-26T02:09:01.105Z,99.90
2019-03-26T02:11:04.770Z,99.90
2019-03-26T02:13:08.912Z,99.90
2019-03-26T02:15:15.584Z,99.90
2019-03-26T02:17:19.179Z,99.90
2019-03-26T02:19:22.744Z,99.90
2019-03-26T02:21:26.306Z,99.90
2019-03-26T02:23:29.891Z,99.90
2019-03-26T02:25:33.469Z,99.90
2019-03-26T02:27:37.032Z,99.90
2019-03-26T02:29:40.624Z,99.90
2019-03-26T02:31:44.264Z,99.90
2019-03-26T02:33:47.862Z,99.90
2019-03-26T02:35:51.443Z,99.90
2019-03-26T02:37:55.263Z,99.90
2019-03-26T02:39:58.866Z,99.90
2019-03-26T02:42:02.418Z,99.90
2019-03-26T02:44:05.979Z,99.90
2019-03-26T02:46:09.546Z,99.90
2019-03-26T02:48:13.103Z,99.90
2019-03-26T02:50:16.691Z,99.90
2019-03-26T02:52:20.369Z,99.90
2019-03-26T02:54:23.955Z,99.90
2019-03-26T02:56:27.629Z,99.90
2019-03-26T02:58:31.181Z,99.90
2019-03-26T03:00:34.861Z,99.90
2019-03-26T03:02:38.429Z,99.90
2019-03-26T03:04:41.994Z,99.90
2019-03-26T03:06:45.595Z,99.90
2019-03-26T03:08:49.246Z,99.90
2019-03-26T03:10:52.948Z,99.90
2019-03-26T03:12:56.618Z,99.90
2019-03-26T03:15:00.491Z,99.90
2019-03-26T03:17:04.172Z,99.90
2019-03-26T03:19:07.771Z,99.90
2019-03-26T03:21:11.455Z,99.90
2019-03-26T03:23:15.013Z,99.90
2019-03-26T03:25:18.711Z,99.90
2019-03-26T03:27:22.241Z,99.90
2019-03-26T03:29:25.906Z,99.90
2019-03-26T03:31:29.459Z,99.90
2019-03-26T03:33:33.033Z,99.90
2019-03-26T03:35:51.449Z,99.90
2019-03-26T03:37:41.831Z,99.80
2019-03-26T03:39:45.397Z,99.80
2019-03-26T03:41:48.989Z,99.70
2019-03-26T03:43:52.555Z,99.80
2019-03-26T03:45:56.216Z,99.80
2019-03-26T03:48:00.655Z,99.80
2019-03-26T03:50:05.580Z,99.80
2019-03-26T03:52:11.068Z,99.80
2019-03-26T03:54:15.181Z,99.90
2019-03-26T03:56:22.230Z,99.90
2019-03-26T03:58:28.206Z,99.90
2019-03-26T04:00:34.286Z,99.90
2019-03-26T04:02:37.881Z,99.90
2019-03-26T04:04:41.455Z,99.90
2019-03-26T04:06:45.025Z,99.90
2019-03-26T04:08:48.620Z,99.90
2019-03-26T04:10:52.228Z,99.90
2019-03-26T04:12:55.772Z,99.90
2019-03-26T04:14:59.385Z,99.90
2019-03-26T04:17:02.938Z,99.90
2019-03-26T04:19:06.677Z,99.90
2019-03-26T04:21:10.371Z,99.90
2019-03-26T04:23:13.934Z,99.90
2019-03-26T04:25:17.609Z,99.90
2019-03-26T04:27:21.201Z,99.90
2019-03-26T04:29:24.903Z,99.90
2019-03-26T04:31:28.470Z,99.90
2019-03-26T04:33:32.585Z,99.90
2019-03-26T04:35:36.259Z,99.90
2019-03-26T04:37:39.822Z,99.90
2019-03-26T04:39:43.402Z,99.90
2019-03-26T04:41:47.227Z,99.90
2019-03-26T04:43:50.847Z,99.90
2019-03-26T04:45:54.443Z,99.90
2019-03-26T04:47:58.039Z,99.90
2019-03-26T04:50:01.649Z,99.90
2019-03-26T04:52:05.213Z,99.90
2019-03-26T04:54:08.817Z,99.90
2019-03-26T04:56:12.448Z,99.90
2019-03-26T04:58:16.080Z,99.90
2019-03-26T05:00:19.907Z,99.80
2019-03-26T05:02:23.480Z,99.90
2019-03-26T05:04:27.050Z,99.90
2019-03-26T05:06:37.845Z,99.90
2019-03-26T05:08:35.862Z,99.90
2019-03-26T05:10:39.450Z,99.80
2019-03-26T05:12:43.028Z,99.90
2019-03-26T05:14:46.601Z,99.90
2019-03-26T05:16:50.255Z,99.90
2019-03-26T05:18:53.748Z,99.90
2019-03-26T05:20:57.313Z,99.90
2019-03-26T05:23:00.919Z,99.90
2019-03-26T05:25:06.453Z,99.90
2019-03-26T05:27:10.026Z,99.90
2019-03-26T05:29:13.628Z,99.90
2019-03-26T05:31:17.298Z,99.90
2019-03-26T05:33:20.849Z,99.90
2019-03-26T05:35:24.415Z,99.90
2019-03-26T05:37:27.980Z,99.90
2019-03-26T05:39:31.540Z,99.90
2019-03-26T05:41:35.134Z,99.90
2019-03-26T05:43:38.702Z,99.90
2019-03-26T05:45:42.302Z,99.90
2019-03-26T05:47:45.865Z,99.90
2019-03-26T05:49:49.428Z,99.90
2019-03-26T05:51:53.022Z,99.90
2019-03-26T05:53:56.585Z,99.90
2019-03-26T05:56:00.267Z,99.90
2019-03-26T05:58:03.967Z,99.90
2019-03-26T06:00:12.255Z,99.90
2019-03-26T06:02:18.032Z,99.90
2019-03-26T06:04:21.170Z,99.90
2019-03-26T06:06:24.750Z,99.90
2019-03-26T06:08:28.348Z,99.90
2019-03-26T06:10:31.923Z,99.90
2019-03-26T06:12:35.467Z,99.40
2019-03-26T06:14:39.083Z,99.50
2019-03-26T06:16:42.639Z,99.00
2019-03-26T06:18:46.232Z,98.60
2019-03-26T06:20:49.787Z,98.10
2019-03-26T06:22:53.507Z,98.20
2019-03-26T06:24:57.104Z,97.90
2019-03-26T06:27:00.674Z,97.30
2019-03-26T06:29:04.356Z,96.70
2019-03-26T06:31:07.943Z,97.30
2019-03-26T06:33:11.510Z,96.90
2019-03-26T06:35:15.119Z,96.70
2019-03-26T06:37:18.686Z,96.90
2019-03-26T06:39:22.266Z,97.00
2019-03-26T06:41:25.853Z,96.70
2019-03-26T06:43:29.414Z,97.00
2019-03-26T06:45:32.975Z,97.00
2019-03-26T06:47:36.631Z,96.90
2019-03-26T06:49:40.192Z,96.40
2019-03-26T06:51:43.775Z,96.30
2019-03-26T06:53:47.352Z,96.10
2019-03-26T06:55:50.918Z,96.20
2019-03-26T06:57:54.508Z,96.20
2019-03-26T06:59:58.071Z,96.20
2019-03-26T07:02:02.084Z,96.20
2019-03-26T07:04:05.737Z,96.20
2019-03-26T07:06:09.394Z,96.60
2019-03-26T07:08:12.968Z,96.80
2019-03-26T07:10:19.617Z,96.70
2019-03-26T07:12:23.219Z,96.40
2019-03-26T07:14:26.766Z,96.70
2019-03-26T07:16:30.338Z,96.80
2019-03-26T07:18:33.937Z,97.10
2019-03-26T07:20:37.501Z,96.40
2019-03-26T07:22:41.064Z,96.60
2019-03-26T07:24:44.720Z,96.40
2019-03-26T07:26:48.353Z,96.20
2019-03-26T07:28:52.015Z,96.60
2019-03-26T07:30:56.517Z,96.40
2019-03-26T07:33:00.103Z,96.70
2019-03-26T07:35:05.044Z,96.10
2019-03-26T07:37:08.603Z,96.00
2019-03-26T07:39:12.176Z,96.30
2019-03-26T07:41:15.827Z,96.10
2019-03-26T07:43:19.385Z,96.40
2019-03-26T07:45:22.969Z,96.10
2019-03-26T07:47:26.537Z,95.90
2019-03-26T07:49:30.111Z,96.10
2019-03-26T07:51:33.675Z,96.10
2019-03-26T07:53:37.235Z,95.50
2019-03-26T07:55:40.096Z,95.50
2019-03-26T07:57:43.773Z,95.90
2019-03-26T07:59:47.420Z,95.90
2019-03-26T08:01:51.004Z,95.20
2019-03-26T08:03:53.768Z,95.60
2019-03-26T08:05:57.383Z,94.90
2019-03-26T08:08:00.979Z,94.40
2019-03-26T08:10:09.746Z,94.00
2019-03-26T08:12:13.318Z,94.20
2019-03-26T08:14:17.045Z,94.10
2019-03-26T08:16:20.739Z,94.40
2019-03-26T08:18:23.495Z,94.10
2019-03-26T08:20:27.099Z,93.70
2019-03-26T08:22:30.678Z,93.90
2019-03-26T08:24:33.449Z,93.00
2019-03-26T08:26:37.072Z,92.50
2019-03-26T08:28:40.635Z,92.80
2019-03-26T08:30:43.405Z,92.80
2019-03-26T08:32:47.283Z,93.20
2019-03-26T08:34:50.840Z,92.70
2019-03-26T08:36:53.667Z,92.80
2019-03-26T08:38:56.631Z,92.60
2019-03-26T08:40:59.657Z,92.70
2019-03-26T08:43:02.453Z,93.20
2019-03-26T08:45:08.212Z,92.10
2019-03-26T08:47:11.015Z,92.00
2019-03-26T08:49:14.293Z,92.40
2019-03-26T08:51:17.591Z,90.80
2019-03-26T08:53:20.375Z,91.40
2019-03-26T08:55:23.432Z,91.60
2019-03-26T08:57:26.371Z,91.30
2019-03-26T08:59:29.059Z,91.20
2019-03-26T09:01:32.010Z,91.10
2019-03-26T09:03:34.780Z,91.60
2019-03-26T09:05:37.558Z,90.80
2019-03-26T09:07:40.344Z,91.10
2019-03-26T09:09:43.153Z,90.30
2019-03-26T09:11:45.925Z,90.60
2019-03-26T09:13:48.809Z,90.20
2019-03-26T09:15:51.579Z,90.70
2019-03-26T09:17:54.392Z,91.30
2019-03-26T09:19:57.180Z,90.90
2019-03-26T09:21:59.960Z,90.60
2019-03-26T09:24:02.764Z,90.80
2019-03-26T09:26:05.547Z,91.00
2019-03-26T09:28:08.344Z,90.90
2019-03-26T09:30:11.891Z,91.00
2019-03-26T09:32:14.664Z,91.40
2019-03-26T09:34:17.482Z,90.90
2019-03-26T09:36:20.330Z,90.30
2019-03-26T09:38:23.295Z,90.00
2019-03-26T09:40:26.087Z,87.70
2019-03-26T09:42:28.893Z,88.80
2019-03-26T09:44:31.670Z,88.90
2019-03-26T09:46:34.490Z,88.00
2019-03-26T09:48:37.271Z,88.70
2019-03-26T09:50:40.093Z,89.50
2019-03-26T09:52:42.856Z,89.70
2019-03-26T09:54:45.684Z,88.40
2019-03-26T09:56:48.464Z,89.00
2019-03-26T09:58:51.242Z,87.80
2019-03-26T10:00:54.039Z,86.70
2019-03-26T10:02:57.094Z,86.30
2019-03-26T10:04:59.885Z,86.00
2019-03-26T10:07:02.740Z,85.40
2019-03-26T10:09:06.134Z,86.20
2019-03-26T10:11:08.916Z,86.00
2019-03-26T10:13:11.690Z,85.90
2019-03-26T10:15:14.499Z,85.90
2019-03-26T10:17:17.290Z,86.20
2019-03-26T10:19:20.067Z,85.00
2019-03-26T10:21:22.914Z,84.60
2019-03-26T10:23:25.731Z,83.60
2019-03-26T10:25:28.500Z,83.60
2019-03-26T10:27:31.311Z,84.60
2019-03-26T10:29:34.122Z,86.00
2019-03-26T10:31:36.899Z,85.40
2019-03-26T10:33:39.697Z,85.10
2019-03-26T10:35:42.565Z,85.60
2019-03-26T10:37:45.410Z,84.40
2019-03-26T10:39:48.217Z,84.70
2019-03-26T10:41:51.037Z,84.40
2019-03-26T10:43:53.803Z,85.90
2019-03-26T10:45:56.593Z,86.70
2019-03-26T10:47:59.453Z,87.10
2019-03-26T10:50:02.614Z,87.40
2019-03-26T10:52:05.343Z,86.40
2019-03-26T10:54:08.246Z,86.60
2019-03-26T10:56:11.027Z,86.70
2019-03-26T10:58:13.806Z,85.90
2019-03-26T11:00:17.050Z,87.00
2019-03-26T11:02:19.842Z,86.90
2019-03-26T11:04:22.678Z,87.40
2019-03-26T11:06:25.461Z,87.40
2019-03-26T11:08:28.239Z,87.60
2019-03-26T11:10:31.086Z,88.40
2019-03-26T11:12:33.941Z,89.20
2019-03-26T11:14:36.789Z,89.60
2019-03-26T11:16:39.663Z,90.00
2019-03-26T11:18:42.430Z,91.10
2019-03-26T11:20:45.261Z,90.30
2019-03-26T11:22:48.090Z,90.00
2019-03-26T11:24:50.914Z,90.20
2019-03-26T11:26:53.731Z,90.70
2019-03-26T11:28:56.567Z,90.70
2019-03-26T11:30:59.473Z,90.90
2019-03-26T11:33:02.253Z,90.60
2019-03-26T11:35:06.120Z,90.20
2019-03-26T11:37:09.034Z,90.80
2019-03-26T11:39:11.919Z,91.10
2019-03-26T11:41:14.703Z,91.10
2019-03-26T11:43:17.616Z,91.30
2019-03-26T11:45:20.437Z,91.40
2019-03-26T11:47:23.213Z,91.50
2019-03-26T11:49:26.018Z,91.60
2019-03-26T11:51:28.801Z,91.10
2019-03-26T11:53:31.611Z,91.00
2019-03-26T11:55:34.407Z,90.60
2019-03-26T11:57:37.426Z,90.10
2019-03-26T11:59:40.476Z,90.10
2019-03-26T12:01:43.328Z,90.50
2019-03-26T12:03:46.107Z,90.80
2019-03-26T12:05:48.887Z,90.90
2019-03-26T12:07:51.670Z,90.80
2019-03-26T12:09:54.492Z,91.20
2019-03-26T12:11:57.265Z,91.10
2019-03-26T12:14:00.069Z,91.20
2019-03-26T12:16:02.850Z,91.30
2019-03-26T12:18:05.651Z,91.20
2019-03-26T12:20:09.332Z,91.00
2019-03-26T12:22:12.138Z,91.50
2019-03-26T12:24:14.916Z,91.50
2019-03-26T12:26:17.712Z,91.80
2019-03-26T12:28:20.496Z,91.70
2019-03-26T12:30:24.836Z,91.50
2019-03-26T12:32:27.603Z,91.80
2019-03-26T12:34:30.460Z,91.60
2019-03-26T12:36:39.863Z,91.70
2019-03-26T12:38:37.663Z,91.60
2019-03-26T12:40:40.487Z,91.10
2019-03-26T12:42:43.260Z,91.50
2019-03-26T12:44:46.332Z,90.70
2019-03-26T12:46:49.188Z,90.20
2019-03-26T12:48:51.966Z,90.20
2019-03-26T12:50:54.775Z,89.00
2019-03-26T12:52:57.565Z,88.60
2019-03-26T12:55:00.384Z,86.50
2019-03-26T12:57:03.181Z,86.70
2019-03-26T12:59:06.033Z,85.50
2019-03-26T13:01:08.870Z,84.90
2019-03-26T13:03:11.723Z,85.00
2019-03-26T13:05:14.573Z,83.90
2019-03-26T13:07:17.379Z,85.50
2019-03-26T13:09:20.201Z,85.40
2019-03-26T13:11:22.976Z,85.00
2019-03-26T13:13:25.788Z,85.50
2019-03-26T13:15:28.559Z,86.50
2019-03-26T13:17:31.350Z,85.60
2019-03-26T13:19:34.123Z,85.40
2019-03-26T13:21:37.615Z,85.60
2019-03-26T13:23:40.799Z,85.90
2019-03-26T13:25:43.571Z,85.40
2019-03-26T13:27:46.387Z,84.00
2019-03-26T13:29:49.447Z,83.20
2019-03-26T13:31:52.250Z,83.50
2019-03-26T13:33:55.101Z,84.00
2019-03-26T13:35:58.007Z,83.10
2019-03-26T13:38:00.809Z,84.60
2019-03-26T13:40:04.274Z,83.90
2019-03-26T13:42:07.260Z,84.00
2019-03-26T13:44:10.116Z,84.60
2019-03-26T13:46:13.003Z,85.30
2019-03-26T13:48:15.800Z,84.50
2019-03-26T13:50:18.696Z,85.30
2019-03-26T13:52:21.662Z,85.90
2019-03-26T13:54:24.471Z,85.90
2019-03-26T13:56:27.401Z,85.80
2019-03-26T13:58:30.187Z,85.70
2019-03-26T14:00:36.671Z,85.90
2019-03-26T14:02:39.533Z,86.30
2019-03-26T14:04:42.322Z,86.10
2019-03-26T14:06:47.854Z,86.50
2019-03-26T14:08:50.773Z,86.00
2019-03-26T14:10:53.514Z,86.00
2019-03-26T14:12:56.392Z,85.50
2019-03-26T14:14:59.225Z,84.30
2019-03-26T14:17:05.384Z,84.20
2019-03-26T14:19:06.705Z,83.90
2019-03-26T14:21:09.894Z,83.60
2019-03-26T14:23:12.712Z,82.40
2019-03-26T14:25:15.547Z,83.00
2019-03-26T14:27:18.429Z,82.70
2019-03-26T14:29:24.491Z,81.40
2019-03-26T14:31:25.836Z,82.20
2019-03-26T14:33:28.636Z,81.80
2019-03-26T14:35:31.415Z,81.20
2019-03-26T14:37:34.256Z,82.50
2019-03-26T14:39:37.125Z,83.30
2019-03-26T14:41:39.923Z,83.50
2019-03-26T14:43:42.733Z,83.40
2019-03-26T14:45:45.509Z,83.40
2019-03-26T14:47:48.282Z,84.30
2019-03-26T14:49:51.100Z,84.20
2019-03-26T14:51:54.028Z,83.70
2019-03-26T14:53:56.989Z,84.50
2019-03-26T14:55:59.915Z,84.50
2019-03-26T14:58:02.900Z,85.10
2019-03-26T15:00:08.915Z,83.90
2019-03-26T15:02:11.763Z,83.60
2019-03-26T15:04:14.537Z,82.90
2019-03-26T15:06:17.418Z,83.70
2019-03-26T15:08:20.218Z,83.70
2019-03-26T15:10:23.595Z,83.40
2019-03-26T15:12:26.602Z,83.30
2019-03-26T15:14:29.389Z,84.20
2019-03-26T15:16:32.234Z,84.10
2019-03-26T15:18:35.117Z,83.70
2019-03-26T15:20:38.195Z,84.50
2019-03-26T15:22:41.280Z,84.30
2019-03-26T15:24:44.187Z,84.60
2019-03-26T15:26:47.218Z,84.50
2019-03-26T15:28:50.180Z,84.60
2019-03-26T15:30:52.945Z,84.40
2019-03-26T15:32:55.909Z,84.20
2019-03-26T15:34:59.048Z,85.30
2019-03-26T15:37:01.824Z,85.10
2019-03-26T15:39:05.989Z,85.00
2019-03-26T15:41:21.033Z,85.30
2019-03-26T15:43:13.303Z,85.30
2019-03-26T15:45:16.666Z,86.00
2019-03-26T15:47:19.464Z,86.00
2019-03-26T15:49:22.342Z,86.30
2019-03-26T15:51:25.216Z,86.50
2019-03-26T15:53:28.114Z,86.50
2019-03-26T15:55:30.972Z,86.20
2019-03-26T15:57:33.772Z,86.70
2019-03-26T15:59:36.551Z,86.20
2019-03-26T16:01:39.398Z,86.10
2019-03-26T16:03:42.192Z,86.60
2019-03-26T16:05:44.989Z,86.10
2019-03-26T16:07:47.829Z,86.60
2019-03-26T16:09:50.608Z,86.30
2019-03-26T16:11:53.428Z,86.60
2019-03-26T16:13:56.220Z,87.10
2019-03-26T16:15:58.998Z,86.90
2019-03-26T16:18:01.842Z,88.00
2019-03-26T16:20:06.238Z,87.10
2019-03-26T16:22:08.978Z,87.40
2019-03-26T16:24:11.791Z,88.50
2019-03-26T16:26:14.586Z,87.80
2019-03-26T16:28:17.375Z,87.80
2019-03-26T16:30:20.195Z,88.10
2019-03-26T16:32:22.973Z,87.90
2019-03-26T16:34:25.865Z,88.00
2019-03-26T16:36:28.631Z,87.90
2019-03-26T16:38:31.411Z,88.30
2019-03-26T16:40:34.223Z,88.00
2019-03-26T16:42:37.020Z,88.30
2019-03-26T16:44:39.816Z,87.90
2019-03-26T16:46:42.593Z,88.50
2019-03-26T16:48:45.377Z,88.50
2019-03-26T16:50:48.188Z,88.60
2019-03-26T16:52:50.969Z,89.00
2019-03-26T16:54:53.768Z,88.70
2019-03-26T16:56:56.583Z,88.70
2019-03-26T16:58:59.356Z,88.90
2019-03-26T17:01:02.177Z,88.70
2019-03-26T17:03:05.029Z,89.00
2019-03-26T17:05:07.916Z,88.70
2019-03-26T17:07:10.688Z,88.90
2019-03-26T17:09:13.491Z,88.80
2019-03-26T17:11:16.271Z,89.10
2019-03-26T17:13:19.075Z,89.40
2019-03-26T17:15:22.031Z,89.30
2019-03-26T17:17:24.809Z,89.30
2019-03-26T17:19:27.614Z,89.30
2019-03-26T17:21:30.436Z,90.00
2019-03-26T17:23:33.238Z,89.40
2019-03-26T17:25:36.114Z,89.60
2019-03-26T17:27:38.929Z,90.00
2019-03-26T17:29:41.715Z,89.80
2019-03-26T17:31:44.566Z,90.10
2019-03-26T17:33:47.336Z,90.10
2019-03-26T17:35:50.324Z,90.30
2019-03-26T17:37:59.715Z,91.30
2019-03-26T17:39:57.712Z,92.60
2019-03-26T17:42:00.670Z,92.90
2019-03-26T17:44:03.459Z,93.20
2019-03-26T17:46:06.335Z,92.90
2019-03-26T17:48:09.179Z,93.00
2019-03-26T17:50:12.421Z,93.00
2019-03-26T17:52:15.384Z,93.00
2019-03-26T17:54:21.235Z,93.80
2019-03-26T17:56:24.011Z,94.50
2019-03-26T17:58:26.931Z,95.20
2019-03-26T18:00:36.662Z,94.50
2019-03-26T18:02:39.511Z,94.70
2019-03-26T18:04:42.475Z,95.00
2019-03-26T18:06:45.240Z,94.60
2019-03-26T18:08:48.042Z,94.60
2019-03-26T18:10:50.817Z,94.60
2019-03-26T18:12:53.611Z,94.40
2019-03-26T18:14:56.422Z,94.70
2019-03-26T18:16:59.219Z,94.40
2019-03-26T18:19:03.567Z,94.30
2019-03-26T18:21:06.877Z,94.20
2019-03-26T18:23:09.877Z,94.60
2019-03-26T18:25:12.963Z,94.70
2019-03-26T18:27:15.703Z,95.60
2019-03-26T18:29:18.517Z,97.30
2019-03-26T18:31:21.375Z,98.50
2019-03-26T18:33:24.297Z,99.90
2019-03-26T18:35:27.194Z,99.80
2019-03-26T18:37:30.020Z,99.90
2019-03-26T18:39:32.793Z,99.90
2019-03-26T18:41:36.313Z,99.90
2019-03-26T18:43:39.170Z,99.90
2019-03-26T18:45:42.052Z,99.90
2019-03-26T18:47:44.850Z,99.90
2019-03-26T18:49:47.668Z,99.90
2019-03-26T18:51:50.528Z,99.90
2019-03-26T18:53:53.335Z,99.90
2019-03-26T18:55:56.210Z,99.90
2019-03-26T18:57:59.043Z,99.90
2019-03-26T19:00:01.840Z,99.90
2019-03-26T19:02:04.751Z,99.90
2019-03-26T19:04:07.564Z,99.90
2019-03-26T19:06:10.332Z,99.90
2019-03-26T19:08:13.219Z,99.90
2019-03-26T19:10:32.180Z,99.90
2019-03-26T19:12:35.123Z,99.90
2019-03-26T19:14:37.930Z,99.90
2019-03-26T19:16:40.715Z,99.90
2019-03-26T19:18:43.522Z,99.90
2019-03-26T19:20:46.382Z,99.90
2019-03-26T19:22:49.177Z,99.90
2019-03-26T19:24:52.098Z,99.90
2019-03-26T19:26:54.868Z,99.90
2019-03-26T19:28:57.687Z,99.90
2019-03-26T19:31:00.466Z,99.90
2019-03-26T19:33:03.324Z,99.90
2019-03-26T19:35:06.603Z,99.90
2019-03-26T19:37:09.458Z,99.90
2019-03-26T19:39:12.270Z,99.90
2019-03-26T19:41:15.130Z,99.90
2019-03-26T19:43:17.928Z,99.90
2019-03-26T19:45:20.822Z,99.90
2019-03-26T19:47:23.610Z,99.90
2019-03-26T19:49:26.434Z,99.90
2019-03-26T19:51:29.239Z,99.90
2019-03-26T19:53:32.091Z,99.90
2019-03-26T19:55:35.007Z,99.90
2019-03-26T19:57:37.787Z,99.90
2019-03-26T19:59:40.587Z,99.90
2019-03-26T20:01:43.727Z,99.90
2019-03-26T20:03:46.532Z,99.90
2019-03-26T20:05:49.274Z,99.90
2019-03-26T20:07:52.214Z,99.90
2019-03-26T20:09:54.993Z,99.90
2019-03-26T20:11:57.816Z,99.90
2019-03-26T20:14:00.685Z,99.90
2019-03-26T20:16:03.466Z,99.90
2019-03-26T20:18:06.442Z,99.90
2019-03-26T20:20:09.461Z,99.90
2019-03-26T20:22:12.307Z,99.90
2019-03-26T20:24:15.116Z,99.90
2019-03-26T20:26:18.140Z,99.90
2019-03-26T20:28:20.882Z,99.90
2019-03-26T20:30:23.858Z,99.90
2019-03-26T20:32:26.689Z,99.90
2019-03-26T20:34:29.487Z,99.90
2019-03-26T20:36:32.429Z,99.90
2019-03-26T20:38:35.303Z,99.90
2019-03-26T20:40:38.091Z,99.90
2019-03-26T20:42:42.820Z,99.90
2019-03-26T20:44:45.731Z,99.90
2019-03-26T20:46:48.585Z,99.90
2019-03-26T20:48:51.360Z,99.90
2019-03-26T20:50:57.094Z,99.90
2019-03-26T20:52:58.651Z,99.90
2019-03-26T20:55:01.472Z,99.90
2019-03-26T20:57:04.580Z,99.90
2019-03-26T20:59:09.008Z,99.90
2019-03-26T21:01:11.809Z,99.90
2019-03-26T21:03:14.618Z,99.90
2019-03-26T21:05:17.470Z,99.90
2019-03-26T21:07:20.461Z,99.90
2019-03-26T21:09:23.264Z,99.90
2019-03-26T21:11:26.180Z,99.90
2019-03-26T21:13:29.108Z,99.90
2019-03-26T21:15:32.050Z,99.90
2019-03-26T21:17:34.831Z,99.90
2019-03-26T21:19:37.654Z,99.90
2019-03-26T21:21:40.425Z,99.90
2019-03-26T21:23:43.227Z,99.90
2019-03-26T21:25:46.013Z,99.90
2019-03-26T21:27:48.887Z,99.90
2019-03-26T21:29:51.748Z,99.90
2019-03-26T21:31:54.529Z,99.90
2019-03-26T21:33:57.293Z,99.90
2019-03-26T21:36:00.154Z,99.90
2019-03-26T21:38:03.035Z,99.90
2019-03-26T21:40:10.389Z,99.90
2019-03-26T21:42:13.188Z,99.90
2019-03-26T21:44:16.031Z,99.90
2019-03-26T21:46:18.828Z,99.90
2019-03-26T21:48:23.182Z,99.90
2019-03-26T21:50:25.997Z,99.90
2019-03-26T21:52:28.799Z,99.90
2019-03-26T21:54:31.607Z,99.90
2019-03-26T21:56:34.460Z,99.90
2019-03-26T21:58:37.280Z,99.90
2019-03-26T22:00:40.060Z,99.90
2019-03-26T22:02:42.883Z,99.90
2019-03-26T22:04:45.750Z,99.90
2019-03-26T22:06:48.706Z,99.90
2019-03-26T22:08:51.566Z,99.90
2019-03-26T22:10:54.369Z,99.90
2019-03-26T22:12:57.140Z,99.90
2019-03-26T22:14:59.957Z,99.90
2019-03-26T22:17:02.829Z,99.90
2019-03-26T22:19:05.601Z,99.90
2019-03-26T22:21:08.387Z,99.90
2019-03-26T22:23:11.383Z,99.70
2019-03-26T22:25:14.377Z,99.70
2019-03-26T22:27:17.154Z,99.90
2019-03-26T22:29:19.934Z,99.50
2019-03-26T22:31:22.843Z,99.50
2019-03-26T22:33:25.618Z,99.50
2019-03-26T22:35:28.319Z,99.80
2019-03-26T22:37:31.181Z,99.50
2019-03-26T22:39:33.956Z,99.80
2019-03-26T22:41:36.740Z,99.60
2019-03-26T22:43:39.520Z,99.60
2019-03-26T22:45:42.303Z,99.80
2019-03-26T22:47:45.116Z,99.50
2019-03-26T22:49:47.949Z,99.60
2019-03-26T22:51:50.732Z,99.90
2019-03-26T22:53:53.585Z,99.90
2019-03-26T22:55:56.359Z,99.60
2019-03-26T22:57:59.170Z,99.50
2019-03-26T23:00:01.958Z,99.20
2019-03-26T23:02:04.922Z,99.30
2019-03-26T23:04:07.722Z,99.10
2019-03-26T23:06:10.499Z,99.10
2019-03-26T23:08:13.266Z,99.00
2019-03-26T23:10:17.248Z,99.20
2019-03-26T23:12:20.018Z,99.30
2019-03-26T23:14:22.825Z,98.50
2019-03-26T23:16:25.640Z,98.50
2019-03-26T23:18:28.523Z,98.70
2019-03-26T23:20:31.782Z,98.70
2019-03-26T23:22:34.624Z,98.50
2019-03-26T23:24:37.498Z,98.40
2019-03-26T23:26:40.307Z,98.60
2019-03-26T23:28:43.086Z,98.50
2019-03-26T23:30:45.871Z,98.50
2019-03-26T23:32:48.666Z,98.90
2019-03-26T23:34:51.431Z,98.80
2019-03-26T23:36:54.559Z,99.00
2019-03-26T23:38:57.326Z,99.00
2019-03-26T23:41:00.140Z,99.20
2019-03-26T23:43:02.997Z,98.90
2019-03-26T23:45:07.225Z,98.90
2019-03-26T23:47:10.011Z,99.10
2019-03-26T23:49:12.796Z,99.10
2019-03-26T23:51:15.568Z,99.30
2019-03-26T23:53:18.444Z,99.20
2019-03-26T23:55:21.295Z,99.20
2019-03-26T23:57:24.079Z,99.20
2019-03-26T23:59:26.885Z,99.50
